Guatemala City, Guatemala
Current Conditions -  °F | °C
As of 12:00 PM on Thursday 23 Oct 2014 (Local Time) from MGGT Reporting Station
Broken Clouds Broken Clouds  
Wind Chill: 22°   Ceiling: 20000
Heat Index: 22°   Visibility: 6mi
Dew Point: 16°   Wind: 12mph
Humidity: 69%   Direction: 200°SSW
Pressure: 30.21"   Gusts: NA
Location:  14.58°N, 90.52°W
Report Text: MGGT 231800Z 20010KT 9999 FEW018 SCT080 BKN200 22/16 Q1023 A3021
Loading
Personal Weather Stations






























Interactive Weather Map New forecast layout! Learn more

10-Day Weather Forecast

Advertisements
Track Severe Weather on mobile